Time;durP1;ratioP1;P1;durP2;ratioP2;P2;SDS_P1;SDS_P2;PMS_P1;PMS_P2;Temp;Humidity;BMP_temperature;BMP_pressure;BME280_temperature;BME280_humidity;BME280_pressure;Samples;Min_cycle;Max_cycle;Signal;HPM_P1;HPM_P2
2023/12/21 00:01:09;;;;;;;9.07;7.80;;;;;;;;;;5094839;28;20562;-79
2023/12/21 00:03:36;;;;;;;10.27;7.27;;;;;;;;;;5094640;28;20204;-79
2023/12/21 00:06:04;;;;;;;8.73;5.87;;;;;;;;;;5094483;28;20310;-79
2023/12/21 00:08:31;;;;;;;7.53;6.37;;;;;;;;;;5094640;28;20293;-79
2023/12/21 00:10:58;;;;;;;11.47;6.57;;;;;;;;;;5093092;28;20192;-79
2023/12/21 00:13:26;;;;;;;8.87;6.20;;;;;;;;;;5094264;28;20296;-79
2023/12/21 00:15:53;;;;;;;6.77;6.07;;;;;;;;;;5094164;28;20242;-79
2023/12/21 00:18:20;;;;;;;8.63;6.97;;;;;;;;;;5094918;28;20272;-80
2023/12/21 00:20:47;;;;;;;8.30;7.33;;;;;;;;;;5094030;28;20208;-80
2023/12/21 00:23:15;;;;;;;7.93;7.13;;;;;;;;;;5093620;28;20629;-80
2023/12/21 00:25:42;;;;;;;9.67;7.90;;;;;;;;;;5094867;28;20566;-80
2023/12/21 00:28:11;;;;;;;7.87;6.97;;;;;;;;;;5094131;28;20231;-80
2023/12/21 00:30:38;;;;;;;7.93;7.00;;;;;;;;;;5094188;28;20230;-80
2023/12/21 00:33:05;;;;;;;10.23;7.33;;;;;;;;;;5092820;28;20193;-79
2023/12/21 00:35:32;;;;;;;9.77;7.90;;;;;;;;;;5093352;28;20204;-79
2023/12/21 00:37:59;;;;;;;9.53;7.57;;;;;;;;;;5093940;28;20196;-79
2023/12/21 00:40:27;;;;;;;10.90;8.77;;;;;;;;;;5094069;28;20250;-79
2023/12/21 00:42:54;;;;;;;15.37;11.80;;;;;;;;;;5093413;28;20196;-79
2023/12/21 00:45:21;;;;;;;13.10;9.73;;;;;;;;;;5093958;28;20285;-79
2023/12/21 00:47:48;;;;;;;13.23;11.37;;;;;;;;;;5093790;28;20239;-79
2023/12/21 00:50:15;;;;;;;13.27;9.93;;;;;;;;;;5093529;28;20200;-79
2023/12/21 00:52:42;;;;;;;12.37;9.10;;;;;;;;;;5093395;28;20196;-79
2023/12/21 00:55:10;;;;;;;11.40;10.20;;;;;;;;;;5093332;28;20332;-79
2023/12/21 00:57:38;;;;;;;11.57;9.77;;;;;;;;;;5093393;28;20215;-79
2023/12/21 01:00:06;;;;;;;9.50;7.37;;;;;;;;;;5092068;28;20199;-79
2023/12/21 01:02:35;;;;;;;9.83;8.83;;;;;;;;;;5093568;28;20200;-80
2023/12/21 01:05:01;;;;;;;10.17;7.90;;;;;;;;;;5093512;28;20581;-80
2023/12/21 01:07:28;;;;;;;12.23;7.77;;;;;;;;;;5092968;28;20219;-80
2023/12/21 01:09:55;;;;;;;11.20;8.17;;;;;;;;;;5106350;28;20210;-80
2023/12/21 01:12:21;;;;;;;12.37;7.70;;;;;;;;;;5113279;28;20202;-80
2023/12/21 01:14:50;;;;;;;9.97;7.03;;;;;;;;;;5113321;28;20195;-80
2023/12/21 01:17:17;;;;;;;9.90;6.53;;;;;;;;;;5113156;28;20191;-80
2023/12/21 01:19:43;;;;;;;10.47;7.20;;;;;;;;;;5113073;28;20670;-79
2023/12/21 01:22:10;;;;;;;9.47;7.33;;;;;;;;;;5113215;28;20202;-79
2023/12/21 01:24:39;;;;;;;8.33;7.13;;;;;;;;;;5113519;28;20259;-80
2023/12/21 01:27:06;;;;;;;8.47;6.97;;;;;;;;;;5113114;28;20251;-79
2023/12/21 01:29:33;;;;;;;9.23;7.17;;;;;;;;;;5112689;28;20199;-79
2023/12/21 01:32:01;;;;;;;7.87;6.50;;;;;;;;;;5113579;28;20195;-80
2023/12/21 01:34:28;;;;;;;23.93;13.83;;;;;;;;;;5110788;28;20206;-79
2023/12/21 01:36:54;;;;;;;10.00;7.90;;;;;;;;;;5111403;28;20199;-80
2023/12/21 01:39:21;;;;;;;8.00;7.20;;;;;;;;;;5113254;28;20206;-79
2023/12/21 01:41:48;;;;;;;11.30;6.77;;;;;;;;;;5113068;28;20199;-79
2023/12/21 01:44:15;;;;;;;10.07;7.03;;;;;;;;;;5112798;28;20285;-80
2023/12/21 01:46:43;;;;;;;10.73;7.57;;;;;;;;;;5113068;28;20223;-79
2023/12/21 01:49:11;;;;;;;11.70;7.70;;;;;;;;;;5113027;28;20195;-79
2023/12/21 01:51:38;;;;;;;9.67;6.97;;;;;;;;;;5103565;28;20188;-80
2023/12/21 01:54:07;;;;;;;8.70;7.43;;;;;;;;;;5113636;28;20202;-79
2023/12/21 01:56:34;;;;;;;10.00;8.00;;;;;;;;;;5112117;28;20272;-79
2023/12/21 01:59:01;;;;;;;8.77;6.63;;;;;;;;;;5112544;28;20191;-80
2023/12/21 02:01:28;;;;;;;7.90;6.20;;;;;;;;;;5112623;28;20260;-79
2023/12/21 02:03:55;;;;;;;8.57;6.77;;;;;;;;;;5113006;28;20205;-79
2023/12/21 02:06:24;;;;;;;8.37;6.23;;;;;;;;;;5110912;28;20211;-80
2023/12/21 02:08:50;;;;;;;8.37;6.53;;;;;;;;;;5111220;28;20678;-79
2023/12/21 02:11:17;;;;;;;8.70;5.87;;;;;;;;;;5111896;28;20202;-80
2023/12/21 02:13:44;;;;;;;9.07;7.07;;;;;;;;;;5111857;28;20202;-80
2023/12/21 02:16:15;;;;;;;11.33;7.00;;;;;;;;;;5112180;28;20195;-79
2023/12/21 02:18:42;;;;;;;18.30;7.20;;;;;;;;;;5112786;28;20252;-80
2023/12/21 02:21:10;;;;;;;10.57;7.13;;;;;;;;;;5110814;28;20199;-80
2023/12/21 02:23:40;;;;;;;15.77;11.17;;;;;;;;;;5112059;28;20619;-79
2023/12/21 02:26:10;;;;;;;15.17;10.40;;;;;;;;;;5112508;28;20222;-80
2023/12/21 02:28:37;;;;;;;18.60;11.97;;;;;;;;;;5112406;28;20642;-80
2023/12/21 02:31:04;;;;;;;20.53;13.83;;;;;;;;;;5112630;28;20713;-80
2023/12/21 02:33:31;;;;;;;10.70;9.47;;;;;;;;;;5112192;28;20593;-79
2023/12/21 02:35:58;;;;;;;9.30;7.73;;;;;;;;;;5112273;28;20192;-79
2023/12/21 02:38:25;;;;;;;17.13;12.60;;;;;;;;;;5112461;28;20212;-80
2023/12/21 02:40:51;;;;;;;11.13;9.83;;;;;;;;;;5112518;28;20195;-79
2023/12/21 02:43:19;;;;;;;8.87;7.40;;;;;;;;;;5112209;28;20207;-80
2023/12/21 02:45:46;;;;;;;10.47;7.20;;;;;;;;;;5112758;28;20199;-80
2023/12/21 02:48:13;;;;;;;9.37;6.13;;;;;;;;;;5116319;28;20218;-80
2023/12/21 02:50:40;;;;;;;7.67;6.30;;;;;;;;;;5114809;28;20191;-80
2023/12/21 02:53:07;;;;;;;10.33;7.00;;;;;;;;;;5116172;28;20195;-80
2023/12/21 02:55:35;;;;;;;9.13;7.07;;;;;;;;;;5114504;28;20199;-80
2023/12/21 02:58:02;;;;;;;9.23;6.73;;;;;;;;;;5115881;28;20199;-80
2023/12/21 03:00:30;;;;;;;8.70;6.93;;;;;;;;;;5115970;28;20248;-80
2023/12/21 03:02:57;;;;;;;7.00;5.77;;;;;;;;;;5107237;28;20199;-80
2023/12/21 03:05:23;;;;;;;9.57;6.33;;;;;;;;;;5095774;28;20200;-81
2023/12/21 03:07:52;;;;;;;7.13;6.43;;;;;;;;;;5095400;28;20220;-81
2023/12/21 03:10:20;;;;;;;10.13;6.43;;;;;;;;;;5095691;28;20200;-80
2023/12/21 03:12:47;;;;;;;8.70;6.80;;;;;;;;;;5095692;28;20203;-81
2023/12/21 03:15:14;;;;;;;7.37;5.77;;;;;;;;;;5095459;28;20200;-81
2023/12/21 03:17:42;;;;;;;9.23;5.90;;;;;;;;;;5095108;28;20196;-81
2023/12/21 03:20:10;;;;;;;9.83;6.27;;;;;;;;;;5095584;28;20196;-81
2023/12/21 03:22:37;;;;;;;8.50;7.17;;;;;;;;;;5094076;28;20196;-80
2023/12/21 03:25:05;;;;;;;9.83;6.90;;;;;;;;;;5095477;28;20200;-81
2023/12/21 03:27:31;;;;;;;7.57;5.93;;;;;;;;;;5095186;28;20228;-81
2023/12/21 03:29:58;;;;;;;7.73;4.87;;;;;;;;;;5096050;28;20216;-81
2023/12/21 03:32:24;;;;;;;6.70;5.33;;;;;;;;;;5095797;28;20192;-81
2023/12/21 03:34:52;;;;;;;12.57;9.50;;;;;;;;;;5099679;28;20222;-80
2023/12/21 03:37:19;;;;;;;13.17;9.97;;;;;;;;;;5115177;28;20199;-80
2023/12/21 03:39:45;;;;;;;16.43;12.80;;;;;;;;;;5115609;28;20218;-81
2023/12/21 03:42:12;;;;;;;23.13;13.43;;;;;;;;;;5115633;28;20608;-81
2023/12/21 03:44:39;;;;;;;14.90;11.17;;;;;;;;;;5115274;28;20206;-81
2023/12/21 03:47:06;;;;;;;11.77;8.90;;;;;;;;;;5115220;28;20222;-81
2023/12/21 03:49:33;;;;;;;13.47;8.43;;;;;;;;;;5115318;28;20203;-80
2023/12/21 03:52:01;;;;;;;21.33;13.57;;;;;;;;;;5115330;28;20195;-81
2023/12/21 03:54:27;;;;;;;30.93;21.03;;;;;;;;;;5115173;28;20200;-81
2023/12/21 03:56:54;;;;;;;36.27;20.83;;;;;;;;;;5115478;28;20192;-81
2023/12/21 03:59:21;;;;;;;30.10;21.43;;;;;;;;;;5114795;28;20191;-81
2023/12/21 04:01:48;;;;;;;19.00;11.67;;;;;;;;;;5114774;28;20618;-81
2023/12/21 04:04:15;;;;;;;12.00;9.07;;;;;;;;;;5114767;28;20195;-81
2023/12/21 04:06:41;;;;;;;9.47;8.47;;;;;;;;;;5114850;28;20202;-81
2023/12/21 04:09:09;;;;;;;18.97;16.80;;;;;;;;;;5114861;28;20192;-81
2023/12/21 04:11:36;;;;;;;20.40;18.17;;;;;;;;;;5113081;28;20207;-80
2023/12/21 04:14:03;;;;;;;17.03;14.60;;;;;;;;;;5114812;28;20592;-81
2023/12/21 04:16:30;;;;;;;16.60;14.53;;;;;;;;;;5115193;28;20236;-81
2023/12/21 04:18:57;;;;;;;15.17;13.60;;;;;;;;;;5115364;28;20195;-81
2023/12/21 04:21:24;;;;;;;14.53;13.00;;;;;;;;;;5115497;28;20199;-81
2023/12/21 04:23:50;;;;;;;11.60;10.10;;;;;;;;;;5115077;28;20203;-80
2023/12/21 04:26:22;;;;;;;55.93;31.17;;;;;;;;;;5114393;28;20665;-80
2023/12/21 04:28:50;;;;;;;143.57;84.13;;;;;;;;;;5114584;28;20215;-80
2023/12/21 04:31:20;;;;;;;31.23;23.07;;;;;;;;;;5114990;28;20219;-80
2023/12/21 04:33:49;;;;;;;20.40;11.83;;;;;;;;;;5114566;28;20242;-80
2023/12/21 04:36:16;;;;;;;12.57;10.10;;;;;;;;;;5112729;28;20687;-80
2023/12/21 04:38:42;;;;;;;10.77;8.93;;;;;;;;;;5114493;28;20195;-80
2023/12/21 04:41:09;;;;;;;13.63;8.53;;;;;;;;;;5114628;28;20207;-80
2023/12/21 04:43:37;;;;;;;16.77;10.13;;;;;;;;;;5114441;28;20593;-80
2023/12/21 04:46:05;;;;;;;10.30;8.13;;;;;;;;;;5114605;28;20199;-80
2023/12/21 04:48:31;;;;;;;13.23;10.47;;;;;;;;;;5101434;28;20216;-80
2023/12/21 04:51:01;;;;;;;16.40;14.67;;;;;;;;;;5098832;28;20206;-79
2023/12/21 04:53:28;;;;;;;17.20;14.07;;;;;;;;;;5113815;28;20195;-80
2023/12/21 04:55:55;;;;;;;17.53;13.83;;;;;;;;;;5113687;28;20195;-79
2023/12/21 04:58:22;;;;;;;10.83;8.30;;;;;;;;;;5114065;28;20681;-80
2023/12/21 05:00:51;;;;;;;8.03;6.40;;;;;;;;;;5113884;28;20574;-80
2023/12/21 05:03:19;;;;;;;8.80;7.30;;;;;;;;;;5113711;28;20206;-80
2023/12/21 05:05:46;;;;;;;9.13;6.40;;;;;;;;;;5113667;28;20637;-80
2023/12/21 05:08:13;;;;;;;7.37;5.93;;;;;;;;;;5114317;28;20310;-80
2023/12/21 05:10:40;;;;;;;12.57;9.70;;;;;;;;;;5113095;28;20553;-80
2023/12/21 05:13:07;;;;;;;10.63;8.20;;;;;;;;;;5114292;28;20192;-80
2023/12/21 05:15:34;;;;;;;7.57;6.17;;;;;;;;;;5113400;28;20758;-80
2023/12/21 05:18:02;;;;;;;5.87;5.27;;;;;;;;;;5107869;28;20200;-81
2023/12/21 05:20:29;;;;;;;46.10;31.53;;;;;;;;;;5097404;28;20196;-79
2023/12/21 05:22:56;;;;;;;20.83;14.83;;;;;;;;;;5092399;28;20227;-80
2023/12/21 05:25:24;;;;;;;18.37;13.90;;;;;;;;;;5093444;28;20207;-80
2023/12/21 05:27:51;;;;;;;11.47;9.00;;;;;;;;;;5093131;28;20588;-80
2023/12/21 05:30:18;;;;;;;14.10;9.50;;;;;;;;;;5093271;28;20228;-80
2023/12/21 05:32:45;;;;;;;14.60;9.30;;;;;;;;;;5099801;28;20285;-80
2023/12/21 05:35:13;;;;;;;10.77;9.40;;;;;;;;;;5093052;28;20211;-80
2023/12/21 05:37:40;;;;;;;15.63;10.07;;;;;;;;;;5092771;28;20212;-79
2023/12/21 05:40:10;;;;;;;9.80;8.40;;;;;;;;;;5092806;28;20212;-79
2023/12/21 05:42:37;;;;;;;10.63;8.73;;;;;;;;;;5092591;28;20207;-79
2023/12/21 05:45:04;;;;;;;10.17;8.10;;;;;;;;;;5092698;28;20200;-80
2023/12/21 05:47:32;;;;;;;10.10;8.13;;;;;;;;;;5094529;28;20223;-80
2023/12/21 05:49:59;;;;;;;18.80;12.37;;;;;;;;;;5097261;28;20226;-79
2023/12/21 05:52:28;;;;;;;13.63;11.03;;;;;;;;;;5111316;28;20284;-80
2023/12/21 05:54:55;;;;;;;14.27;10.80;;;;;;;;;;5104806;28;20249;-80
2023/12/21 05:57:22;;;;;;;14.63;10.50;;;;;;;;;;5092260;28;20611;-80
2023/12/21 05:59:49;;;;;;;11.50;10.23;;;;;;;;;;5091683;28;20196;-80
2023/12/21 06:02:16;;;;;;;10.87;9.70;;;;;;;;;;5109105;28;20253;-80
2023/12/21 06:04:42;;;;;;;10.27;7.90;;;;;;;;;;5100098;28;20195;-80
2023/12/21 06:07:10;;;;;;;11.07;7.20;;;;;;;;;;5103289;28;20651;-80
2023/12/21 06:09:38;;;;;;;9.33;6.13;;;;;;;;;;5099593;28;20192;-80
2023/12/21 06:12:05;;;;;;;6.53;5.80;;;;;;;;;;5098585;28;20267;-80
2023/12/21 06:14:32;;;;;;;10.70;7.63;;;;;;;;;;5094699;28;20202;-80
2023/12/21 06:16:59;;;;;;;13.40;9.93;;;;;;;;;;5096103;28;20192;-80
2023/12/21 06:19:29;;;;;;;12.37;9.23;;;;;;;;;;5109035;28;20203;-80
2023/12/21 06:21:56;;;;;;;11.20;8.10;;;;;;;;;;5100942;28;20201;-80
2023/12/21 06:24:22;;;;;;;12.97;10.23;;;;;;;;;;5108018;28;20203;-81
2023/12/21 06:26:50;;;;;;;14.20;10.83;;;;;;;;;;5101790;28;20199;-81
2023/12/21 06:29:17;;;;;;;8.13;7.00;;;;;;;;;;5111613;28;20226;-81
2023/12/21 06:31:44;;;;;;;7.77;6.47;;;;;;;;;;5103202;28;20212;-81
2023/12/21 06:34:11;;;;;;;7.97;6.73;;;;;;;;;;5107204;28;20585;-80
2023/12/21 06:36:37;;;;;;;6.87;6.17;;;;;;;;;;5095924;28;20192;-79
2023/12/21 06:39:04;;;;;;;7.97;7.17;;;;;;;;;;5096520;28;20204;-78
2023/12/21 06:41:31;;;;;;;21.33;14.17;;;;;;;;;;5103936;28;20272;-80
2023/12/21 06:43:59;;;;;;;39.93;27.23;;;;;;;;;;5095250;28;20554;-81
2023/12/21 06:46:26;;;;;;;28.07;20.00;;;;;;;;;;5098965;28;20540;-81
2023/12/21 06:48:53;;;;;;;14.80;10.87;;;;;;;;;;5101887;28;20697;-81
2023/12/21 06:51:20;;;;;;;8.07;6.83;;;;;;;;;;5109081;28;20202;-84
2023/12/21 06:53:46;;;;;;;12.93;9.60;;;;;;;;;;5111137;28;20256;-81
2023/12/21 06:56:13;;;;;;;16.27;12.90;;;;;;;;;;5111300;28;20248;-81
2023/12/21 06:58:40;;;;;;;23.23;18.10;;;;;;;;;;5102542;28;20200;-82
2023/12/21 07:01:11;;;;;;;21.23;17.53;;;;;;;;;;5099337;28;20223;-83
2023/12/21 07:03:38;;;;;;;24.93;20.67;;;;;;;;;;5103283;28;20252;-82
2023/12/21 07:06:09;;;;;;;22.90;19.73;;;;;;;;;;5110898;28;20228;-83
2023/12/21 07:08:36;;;;;;;22.50;16.60;;;;;;;;;;5111029;28;20227;-83
2023/12/21 07:11:03;;;;;;;15.30;11.83;;;;;;;;;;5093499;28;20191;-83
2023/12/21 07:13:29;;;;;;;15.27;10.50;;;;;;;;;;5096427;28;20577;-85
2023/12/21 07:15:56;;;;;;;13.80;12.30;;;;;;;;;;5106110;28;20201;-82
2023/12/21 07:18:24;;;;;;;24.10;18.83;;;;;;;;;;5096778;28;20552;-86
2023/12/21 07:20:51;;;;;;;17.07;13.87;;;;;;;;;;5100324;28;20254;-92
2023/12/21 07:23:21;;;;;;;18.63;15.33;;;;;;;;;;5091207;28;20223;-83
2023/12/21 07:25:48;;;;;;;14.80;12.60;;;;;;;;;;5102244;28;20279;-84
2023/12/21 07:28:15;;;;;;;16.40;12.77;;;;;;;;;;5111705;28;20307;-88
2023/12/21 07:30:42;;;;;;;30.50;25.77;;;;;;;;;;5110814;28;20216;-84
2023/12/21 07:33:10;;;;;;;33.30;18.53;;;;;;;;;;5111981;28;20585;-92
2023/12/21 07:35:38;;;;;;;31.57;20.27;;;;;;;;;;5115230;28;20195;-88
2023/12/21 07:38:05;;;;;;;38.07;20.57;;;;;;;;;;5097459;28;20204;-85
2023/12/21 07:40:32;;;;;;;29.60;19.47;;;;;;;;;;5114729;28;20199;-85
2023/12/21 07:42:59;;;;;;;23.30;19.10;;;;;;;;;;5114865;28;20202;-87
2023/12/21 07:45:26;;;;;;;23.97;19.00;;;;;;;;;;5105319;28;20772;-85
2023/12/21 07:47:53;;;;;;;59.93;36.00;;;;;;;;;;5115576;28;20203;-86
2023/12/21 07:50:20;;;;;;;37.73;25.80;;;;;;;;;;5114574;28;20611;-84
2023/12/21 07:52:48;;;;;;;27.17;20.00;;;;;;;;;;5114148;28;20192;-90
2023/12/21 07:55:15;;;;;;;20.60;17.27;;;;;;;;;;5100267;28;20207;-89
2023/12/21 07:57:41;;;;;;;20.73;15.17;;;;;;;;;;5093711;28;20655;-88
2023/12/21 08:00:11;;;;;;;16.17;13.03;;;;;;;;;;5098369;28;20584;-86
2023/12/21 08:02:44;;;;;;;19.13;14.50;;;;;;;;;;5114963;28;20199;-85
2023/12/21 08:05:11;;;;;;;12.97;10.53;;;;;;;;;;5105294;28;20574;-85
2023/12/21 08:07:38;;;;;;;7.33;6.00;;;;;;;;;;5113785;28;20196;-83
2023/12/21 08:10:07;;;;;;;6.67;4.73;;;;;;;;;;5098280;28;20255;-87
2023/12/21 08:12:34;;;;;;;10.63;9.27;;;;;;;;;;5079935;28;20206;-87
2023/12/21 08:15:01;;;;;;;12.93;9.60;;;;;;;;;;5104988;28;20199;-85
2023/12/21 08:17:28;;;;;;;14.93;8.70;;;;;;;;;;5099896;28;20196;-85
2023/12/21 08:19:55;;;;;;;15.20;10.83;;;;;;;;;;5101554;28;20591;-85
2023/12/21 08:22:22;;;;;;;12.30;9.00;;;;;;;;;;5109313;28;20621;-86
2023/12/21 08:24:51;;;;;;;12.47;8.53;;;;;;;;;;5113721;28;20279;-88
2023/12/21 08:27:19;;;;;;;13.97;8.13;;;;;;;;;;5114086;28;20200;-87
2023/12/21 08:29:46;;;;;;;10.43;6.87;;;;;;;;;;5112983;28;20245;-89
2023/12/21 08:32:13;;;;;;;8.03;6.80;;;;;;;;;;5093832;28;20204;-85
2023/12/21 08:34:40;;;;;;;12.80;7.20;;;;;;;;;;5093699;28;20296;-91
2023/12/21 08:37:07;;;;;;;9.37;6.53;;;;;;;;;;5100441;28;20207;-85
2023/12/21 08:39:33;;;;;;;9.23;6.07;;;;;;;;;;5113371;28;20199;-85
2023/12/21 08:42:01;;;;;;;6.83;5.53;;;;;;;;;;5113187;28;20641;-85
2023/12/21 08:44:29;;;;;;;8.13;5.83;;;;;;;;;;5112698;28;20227;-84
2023/12/21 08:46:56;;;;;;;6.70;6.10;;;;;;;;;;5104593;28;20203;-85
2023/12/21 08:49:23;;;;;;;9.33;5.97;;;;;;;;;;5113703;28;20215;-88
2023/12/21 08:51:52;;;;;;;6.57;5.90;;;;;;;;;;5113624;28;20203;-92
2023/12/21 08:54:19;;;;;;;5.00;4.50;;;;;;;;;;5114596;28;20207;-89
2023/12/21 08:56:46;;;;;;;4.80;4.33;;;;;;;;;;5113676;28;20195;-93
2023/12/21 08:59:13;;;;;;;5.07;4.13;;;;;;;;;;5113787;28;20715;-90
2023/12/21 09:01:41;;;;;;;5.67;4.37;;;;;;;;;;5114093;28;20295;-86
2023/12/21 09:04:10;;;;;;;6.20;4.90;;;;;;;;;;5103878;28;20203;-85
2023/12/21 09:06:37;;;;;;;6.40;5.20;;;;;;;;;;5099769;28;20193;-84
2023/12/21 09:09:07;;;;;;;5.57;4.47;;;;;;;;;;5100764;28;20588;-85
2023/12/21 09:11:33;;;;;;;4.53;4.13;;;;;;;;;;5088624;28;20200;-84
2023/12/21 09:14:00;;;;;;;5.40;4.03;;;;;;;;;;5091699;28;20203;-84
2023/12/21 09:16:27;;;;;;;20.40;11.03;;;;;;;;;;5106072;28;20196;-87
2023/12/21 09:18:55;;;;;;;9.53;5.40;;;;;;;;;;5111261;28;20204;-85
2023/12/21 09:21:22;;;;;;;3.90;2.90;;;;;;;;;;5105683;28;20257;-84
2023/12/21 09:23:49;;;;;;;6.77;3.87;;;;;;;;;;5110920;28;20219;-85
2023/12/21 09:26:16;;;;;;;13.27;6.93;;;;;;;;;;5100541;28;20195;-86
2023/12/21 09:28:43;;;;;;;12.17;6.87;;;;;;;;;;5099196;28;20230;-88
2023/12/21 09:31:09;;;;;;;9.53;5.67;;;;;;;;;;5112493;28;20227;-86
2023/12/21 09:33:40;;;;;;;5.13;4.63;;;;;;;;;;5112072;28;20197;-86
2023/12/21 09:36:11;;;;;;;3.20;2.90;;;;;;;;;;5111770;28;20208;-85
2023/12/21 09:38:38;;;;;;;3.67;3.27;;;;;;;;;;5096897;28;20191;-87
2023/12/21 09:41:07;;;;;;;4.27;3.40;;;;;;;;;;5112563;28;20208;-86
2023/12/21 09:43:35;;;;;;;6.87;5.40;;;;;;;;;;5109762;28;20197;-85
2023/12/21 09:46:02;;;;;;;5.47;4.23;;;;;;;;;;5093805;28;20200;-87
2023/12/21 09:48:29;;;;;;;7.63;5.43;;;;;;;;;;5112646;28;20268;-84
2023/12/21 09:50:57;;;;;;;6.43;4.77;;;;;;;;;;5111868;28;20207;-86
2023/12/21 09:53:26;;;;;;;8.10;5.60;;;;;;;;;;5103917;28;20199;-86
2023/12/21 09:55:54;;;;;;;5.10;4.43;;;;;;;;;;5111654;28;20200;-85
2023/12/21 09:58:22;;;;;;;6.47;4.80;;;;;;;;;;5111115;28;20212;-86
2023/12/21 10:00:48;;;;;;;7.30;6.10;;;;;;;;;;5112237;28;20203;-86
2023/12/21 10:03:16;;;;;;;6.83;5.10;;;;;;;;;;5111356;28;20549;-86
2023/12/21 10:05:43;;;;;;;10.30;5.27;;;;;;;;;;5111978;28;20204;-85
2023/12/21 10:08:10;;;;;;;6.63;4.77;;;;;;;;;;5111446;28;20206;-87
2023/12/21 10:10:38;;;;;;;7.93;6.30;;;;;;;;;;5102850;28;20223;-84
2023/12/21 10:13:06;;;;;;;6.97;6.27;;;;;;;;;;5111946;28;20209;-84
2023/12/21 10:15:34;;;;;;;7.13;6.20;;;;;;;;;;5111971;28;20200;-84
2023/12/21 10:18:00;;;;;;;10.83;7.47;;;;;;;;;;5111809;28;20203;-84
2023/12/21 10:20:27;;;;;;;8.80;6.37;;;;;;;;;;5096186;28;20195;-91
2023/12/21 10:22:56;;;;;;;8.10;6.27;;;;;;;;;;5110082;28;20203;-86
2023/12/21 10:25:23;;;;;;;10.57;7.70;;;;;;;;;;5106924;28;20575;-90
2023/12/21 10:27:55;;;;;;;14.70;11.03;;;;;;;;;;5092308;28;20203;-91
2023/12/21 10:30:22;;;;;;;10.50;8.73;;;;;;;;;;5111409;28;20231;-86
2023/12/21 10:32:52;;;;;;;19.37;13.00;;;;;;;;;;5111886;28;20235;-81
2023/12/21 10:35:19;;;;;;;10.20;8.77;;;;;;;;;;5111238;28;20236;-86
2023/12/21 10:37:46;;;;;;;12.43;7.87;;;;;;;;;;5099252;28;20658;-88
2023/12/21 10:40:14;;;;;;;13.23;9.53;;;;;;;;;;5107958;28;20687;-89
2023/12/21 10:42:44;;;;;;;13.30;11.20;;;;;;;;;;5111658;28;20290;-93
2023/12/21 10:45:15;;;;;;;24.17;16.73;;;;;;;;;;5112531;28;20222;-91
2023/12/21 10:47:48;;;;;;;16.87;11.90;;;;;;;;;;5111607;28;20289;-86
2023/12/21 10:50:16;;;;;;;18.80;14.10;;;;;;;;;;5112223;28;20751;-85
2023/12/21 10:52:46;;;;;;;21.20;15.53;;;;;;;;;;5093678;28;20555;-86
2023/12/21 10:55:15;;;;;;;13.80;10.90;;;;;;;;;;5081191;28;20196;-85
2023/12/21 10:57:43;;;;;;;11.67;9.00;;;;;;;;;;5099785;28;20203;-89
2023/12/21 11:00:12;;;;;;;29.10;20.33;;;;;;;;;;5112060;28;20203;-85
2023/12/21 11:02:41;;;;;;;22.73;15.03;;;;;;;;;;5102984;28;20202;-84
2023/12/21 11:05:19;;;;;;;21.90;14.03;;;;;;;;;;5097157;28;20204;-84
2023/12/21 11:07:48;;;;;;;9.83;8.13;;;;;;;;;;5112062;28;20218;-85
2023/12/21 11:10:15;;;;;;;8.17;6.40;;;;;;;;;;5111714;28;20223;-84
2023/12/21 11:12:42;;;;;;;8.47;6.83;;;;;;;;;;5111927;28;20191;-85
2023/12/21 11:15:09;;;;;;;20.43;13.70;;;;;;;;;;5081689;28;20293;-83
2023/12/21 11:17:37;;;;;;;9.83;7.83;;;;;;;;;;5105147;28;20276;-85
2023/12/21 11:20:08;;;;;;;6.03;5.27;;;;;;;;;;5114773;28;20199;-87
2023/12/21 11:22:37;;;;;;;11.03;7.73;;;;;;;;;;5115357;28;20195;-85
2023/12/21 11:25:07;;;;;;;6.53;5.93;;;;;;;;;;5104151;28;20231;-85
2023/12/21 11:27:37;;;;;;;9.47;8.10;;;;;;;;;;5109850;28;20201;-82
2023/12/21 11:30:11;;;;;;;23.17;16.77;;;;;;;;;;5111278;28;20231;-83
2023/12/21 11:32:39;;;;;;;11.10;8.63;;;;;;;;;;5114220;28;20195;-84
2023/12/21 11:35:18;;;;;;;9.60;7.43;;;;;;;;;;5108460;28;20192;-84
2023/12/21 11:37:45;;;;;;;11.50;8.43;;;;;;;;;;5086229;28;20195;-84
2023/12/21 11:40:14;;;;;;;7.53;6.10;;;;;;;;;;5110449;28;20199;-84
2023/12/21 11:42:46;;;;;;;13.23;10.20;;;;;;;;;;5113792;28;20684;-84
2023/12/21 11:45:12;;;;;;;12.67;10.97;;;;;;;;;;5113613;28;20234;-84
2023/12/21 11:47:40;;;;;;;8.00;5.13;;;;;;;;;;5096838;28;20683;-84
2023/12/21 11:50:10;;;;;;;14.63;5.80;;;;;;;;;;5082384;28;20215;-81
2023/12/21 11:52:38;;;;;;;10.77;6.47;;;;;;;;;;5103819;28;20203;-84
2023/12/21 11:55:06;;;;;;;7.83;5.63;;;;;;;;;;5114383;28;20191;-90
2023/12/21 11:57:39;;;;;;;5.20;4.23;;;;;;;;;;5112955;28;20662;-82
2023/12/21 12:00:07;;;;;;;7.83;4.73;;;;;;;;;;5104260;28;20196;-79
2023/12/21 12:02:34;;;;;;;10.33;8.70;;;;;;;;;;5100262;28;20203;-89
2023/12/21 12:05:02;;;;;;;10.03;7.77;;;;;;;;;;5106054;28;20654;-94
2023/12/21 12:07:31;;;;;;;11.43;7.20;;;;;;;;;;5113956;28;20208;-86
2023/12/21 12:10:02;;;;;;;9.73;7.43;;;;;;;;;;5105348;28;20228;-95
2023/12/21 12:12:29;;;;;;;8.77;7.07;;;;;;;;;;5111412;28;20195;-87
2023/12/21 12:14:56;;;;;;;12.13;7.03;;;;;;;;;;5115054;28;20192;-87
2023/12/21 12:17:23;;;;;;;9.40;6.93;;;;;;;;;;5114571;28;20195;-92
2023/12/21 12:19:50;;;;;;;8.10;7.00;;;;;;;;;;5104231;28;20204;-84
2023/12/21 12:22:16;;;;;;;7.57;6.83;;;;;;;;;;5094077;28;20200;-84
2023/12/21 12:24:45;;;;;;;7.77;6.53;;;;;;;;;;5108679;28;20211;-88
2023/12/21 12:27:13;;;;;;;11.17;8.10;;;;;;;;;;5113689;28;20195;-87
2023/12/21 12:29:40;;;;;;;10.43;7.10;;;;;;;;;;5114627;28;20252;-90
2023/12/21 12:32:07;;;;;;;12.37;8.30;;;;;;;;;;5114607;28;20195;-90
2023/12/21 12:34:34;;;;;;;13.07;8.23;;;;;;;;;;5100676;28;20192;-85
2023/12/21 12:37:02;;;;;;;14.23;8.13;;;;;;;;;;5098499;28;20260;-86
2023/12/21 12:39:29;;;;;;;11.03;8.33;;;;;;;;;;5101759;28;20204;-84
2023/12/21 12:41:57;;;;;;;11.87;8.90;;;;;;;;;;5092008;28;20205;-84
2023/12/21 12:44:26;;;;;;;11.87;9.10;;;;;;;;;;5107892;28;20220;-87
2023/12/21 12:46:53;;;;;;;10.87;9.47;;;;;;;;;;5112966;28;20587;-85
2023/12/21 12:49:22;;;;;;;12.50;9.63;;;;;;;;;;5081339;28;20219;-88
2023/12/21 12:51:49;;;;;;;11.30;9.27;;;;;;;;;;5105173;28;20245;-87
2023/12/21 12:54:16;;;;;;;9.70;7.70;;;;;;;;;;5097351;28;20204;-87
2023/12/21 12:56:46;;;;;;;13.47;9.47;;;;;;;;;;5106964;28;20608;-90
2023/12/21 12:59:13;;;;;;;9.13;8.03;;;;;;;;;;5099726;28;20200;-88
2023/12/21 13:01:41;;;;;;;11.70;10.50;;;;;;;;;;5103672;28;20192;-87
2023/12/21 13:04:08;;;;;;;12.07;8.90;;;;;;;;;;5093997;28;20211;-89
2023/12/21 13:06:34;;;;;;;10.90;9.13;;;;;;;;;;5097962;28;20215;-86
2023/12/21 13:09:01;;;;;;;10.80;8.47;;;;;;;;;;5097568;28;20240;-85
2023/12/21 13:11:29;;;;;;;10.30;8.83;;;;;;;;;;5113636;28;20781;-87
2023/12/21 13:13:56;;;;;;;18.83;9.30;;;;;;;;;;5112480;28;20192;-85
2023/12/21 13:16:23;;;;;;;9.77;8.73;;;;;;;;;;5113247;28;20191;-90
2023/12/21 13:18:51;;;;;;;13.83;10.30;;;;;;;;;;5113411;28;20205;-89
2023/12/21 13:21:18;;;;;;;14.00;9.57;;;;;;;;;;5113803;28;20195;-85
2023/12/21 13:23:45;;;;;;;13.20;9.07;;;;;;;;;;5112501;28;20183;-90
2023/12/21 13:26:13;;;;;;;12.63;9.77;;;;;;;;;;5095983;28;20203;-87
2023/12/21 13:28:43;;;;;;;18.20;12.67;;;;;;;;;;5112652;28;20203;-93
2023/12/21 13:31:10;;;;;;;17.37;12.53;;;;;;;;;;5113569;28;20231;-90
2023/12/21 13:33:37;;;;;;;17.97;14.13;;;;;;;;;;5113605;28;20191;-85
2023/12/21 13:36:10;;;;;;;17.57;12.93;;;;;;;;;;5113652;28;20195;-88
2023/12/21 13:38:37;;;;;;;15.60;13.97;;;;;;;;;;5109756;28;20203;-85
2023/12/21 13:41:08;;;;;;;18.83;13.60;;;;;;;;;;5101648;28;20203;-85
2023/12/21 13:43:35;;;;;;;20.37;15.37;;;;;;;;;;5100758;28;20617;-86
2023/12/21 13:46:02;;;;;;;18.60;16.80;;;;;;;;;;5092381;28;20196;-87
2023/12/21 13:48:29;;;;;;;18.90;14.77;;;;;;;;;;5088758;28;20220;-86
2023/12/21 13:50:56;;;;;;;15.57;13.07;;;;;;;;;;5111533;28;20586;-89
2023/12/21 13:53:24;;;;;;;28.13;20.97;;;;;;;;;;5106407;28;20268;-86
2023/12/21 13:55:52;;;;;;;31.03;22.83;;;;;;;;;;5112167;28;20225;-86
2023/12/21 13:58:18;;;;;;;18.97;14.93;;;;;;;;;;5111311;28;20207;-85
2023/12/21 14:00:46;;;;;;;21.57;12.90;;;;;;;;;;5095910;28;20656;-84
2023/12/21 14:03:14;;;;;;;14.57;12.93;;;;;;;;;;5110356;28;20337;-85
2023/12/21 14:05:41;;;;;;;27.83;19.73;;;;;;;;;;5100470;28;20222;-89
2023/12/21 14:08:08;;;;;;;42.17;28.83;;;;;;;;;;5097745;28;20202;-87
2023/12/21 14:10:37;;;;;;;28.97;22.77;;;;;;;;;;5111986;28;20222;-88
2023/12/21 14:13:04;;;;;;;46.40;37.97;;;;;;;;;;5113161;28;20198;-86
2023/12/21 14:15:31;;;;;;;22.00;19.20;;;;;;;;;;5095733;28;20198;-87
2023/12/21 14:18:00;;;;;;;19.50;15.20;;;;;;;;;;5100749;28;20577;-86
2023/12/21 14:20:27;;;;;;;19.43;14.27;;;;;;;;;;5111266;28;20191;-83
2023/12/21 14:22:54;;;;;;;23.10;20.07;;;;;;;;;;5111610;28;20249;-86
2023/12/21 14:25:20;;;;;;;48.10;33.70;;;;;;;;;;5105045;28;20208;-87
2023/12/21 14:27:49;;;;;;;36.40;25.67;;;;;;;;;;5111716;28;20191;-88
2023/12/21 14:30:16;;;;;;;90.43;49.33;;;;;;;;;;5111919;28;20235;-87
2023/12/21 14:32:46;;;;;;;95.03;55.60;;;;;;;;;;5099920;28;20535;-87